createdAt,value
2019-02-22T00:03:23.147Z,60.10
2019-02-22T00:07:29.902Z,59.80
2019-02-22T00:11:35.687Z,59.90
2019-02-22T00:15:41.422Z,60.60
2019-02-22T00:19:48.637Z,60.40
2019-02-22T00:23:55.624Z,60.40
2019-02-22T00:28:02.339Z,60.50
2019-02-22T00:32:08.033Z,60.40
2019-02-22T00:36:14.109Z,60.50
2019-02-22T00:40:19.908Z,61.30
2019-02-22T00:44:25.677Z,60.70
2019-02-22T00:48:31.382Z,61.10
2019-02-22T00:52:37.100Z,61.00
2019-02-22T00:56:42.784Z,60.80
2019-02-22T01:00:48.497Z,60.90
2019-02-22T01:04:54.191Z,61.70
2019-02-22T01:09:00.004Z,61.90
2019-02-22T01:13:05.823Z,62.50
2019-02-22T01:17:11.600Z,62.20
2019-02-22T01:21:17.309Z,62.60
2019-02-22T01:25:24.767Z,62.20
2019-02-22T01:29:30.461Z,62.40
2019-02-22T01:33:36.178Z,62.40
2019-02-22T01:37:41.907Z,62.10
2019-02-22T01:41:47.610Z,62.80
2019-02-22T01:45:53.321Z,62.70
2019-02-22T01:49:59.022Z,63.40
2019-02-22T01:54:04.797Z,63.80
2019-02-22T01:58:10.477Z,64.00
2019-02-22T02:02:16.252Z,63.90
2019-02-22T02:06:21.992Z,63.60
2019-02-22T02:10:27.692Z,63.80
2019-02-22T02:14:33.460Z,63.70
2019-02-22T02:18:39.313Z,63.60
2019-02-22T02:22:45.013Z,63.80
2019-02-22T02:26:50.737Z,63.30
2019-02-22T02:30:56.527Z,63.80
2019-02-22T02:35:02.263Z,63.80
2019-02-22T02:39:08.661Z,64.10
2019-02-22T02:43:14.559Z,64.10
2019-02-22T02:47:20.259Z,63.80
2019-02-22T02:51:25.966Z,63.80
2019-02-22T02:55:36.091Z,63.70
2019-02-22T02:59:41.760Z,63.80
2019-02-22T03:03:50.849Z,64.40
2019-02-22T03:07:56.741Z,64.80
2019-02-22T03:12:02.446Z,64.30
2019-02-22T03:16:08.146Z,65.00
2019-02-22T03:20:13.834Z,65.50
2019-02-22T03:24:19.536Z,65.00
2019-02-22T03:28:25.237Z,65.90
2019-02-22T03:32:30.953Z,64.80
2019-02-22T03:36:37.456Z,65.00
2019-02-22T03:40:43.130Z,65.30
2019-02-22T03:44:48.817Z,65.60
2019-02-22T03:48:54.535Z,65.40
2019-02-22T03:53:01.874Z,65.70
2019-02-22T03:57:07.728Z,66.40
2019-02-22T04:01:13.425Z,67.40
2019-02-22T04:05:19.128Z,67.40
2019-02-22T04:09:24.897Z,68.00
2019-02-22T04:13:30.606Z,68.30
2019-02-22T04:17:36.284Z,69.80
2019-02-22T04:21:42.067Z,69.10
2019-02-22T04:25:47.758Z,69.60
2019-02-22T04:29:53.478Z,70.10
2019-02-22T04:33:59.171Z,70.10
2019-02-22T04:38:04.862Z,70.00
2019-02-22T04:42:10.573Z,70.00
2019-02-22T04:46:18.205Z,70.30
2019-02-22T04:50:23.750Z,70.50
2019-02-22T04:54:29.459Z,71.00
2019-02-22T04:58:35.140Z,72.20
2019-02-22T05:02:40.845Z,71.80
2019-02-22T05:06:46.559Z,72.50
2019-02-22T05:10:52.265Z,74.60
2019-02-22T05:14:57.975Z,74.10
2019-02-22T05:19:03.683Z,74.80
2019-02-22T05:23:09.474Z,75.30
2019-02-22T05:27:15.203Z,75.40
2019-02-22T05:31:20.897Z,76.90
2019-02-22T05:35:26.591Z,76.20
2019-02-22T05:39:32.275Z,77.30
2019-02-22T05:43:38.038Z,78.00
2019-02-22T05:47:43.758Z,77.70
2019-02-22T05:51:49.491Z,77.70
2019-02-22T05:55:55.222Z,77.70
2019-02-22T06:00:01.007Z,79.00
2019-02-22T06:04:07.245Z,80.00
2019-02-22T06:08:12.948Z,80.80
2019-02-22T06:12:18.796Z,80.90
2019-02-22T06:16:24.503Z,81.20
2019-02-22T06:20:30.266Z,81.30
2019-02-22T06:24:36.051Z,81.80
2019-02-22T06:28:44.340Z,82.20
2019-02-22T06:32:51.681Z,81.00
2019-02-22T06:37:02.200Z,80.30
2019-02-22T06:41:06.359Z,80.20
2019-02-22T06:45:12.087Z,79.30
2019-02-22T06:49:17.815Z,79.40
2019-02-22T06:53:23.533Z,79.40
2019-02-22T06:57:29.221Z,79.50
2019-02-22T07:01:34.920Z,79.90
2019-02-22T07:05:40.742Z,80.30
2019-02-22T07:09:46.435Z,80.40
2019-02-22T07:13:52.118Z,80.60
2019-02-22T07:17:57.810Z,80.10
2019-02-22T07:22:03.788Z,80.00
2019-02-22T07:26:09.493Z,80.00
2019-02-22T07:30:16.210Z,80.30
2019-02-22T07:34:21.893Z,79.10
2019-02-22T07:38:27.594Z,79.60
2019-02-22T07:42:33.302Z,79.20
2019-02-22T07:46:39.045Z,79.30
2019-02-22T07:50:56.586Z,80.00
2019-02-22T07:54:52.142Z,80.20
2019-02-22T07:58:57.854Z,80.60
2019-02-22T08:03:03.579Z,79.90
2019-02-22T08:07:09.349Z,79.70
2019-02-22T08:11:15.057Z,78.70
2019-02-22T08:15:20.740Z,77.90
2019-02-22T08:19:26.440Z,78.30
2019-02-22T08:23:32.156Z,78.60
2019-02-22T08:27:40.030Z,78.70
2019-02-22T08:31:45.315Z,78.60
2019-02-22T08:35:51.239Z,78.10
2019-02-22T08:39:58.852Z,77.70
2019-02-22T08:44:04.663Z,77.70
2019-02-22T08:48:10.465Z,77.00
2019-02-22T08:52:16.190Z,76.40
2019-02-22T08:56:21.878Z,74.10
2019-02-22T09:00:27.584Z,73.30
2019-02-22T09:04:33.356Z,72.80
2019-02-22T09:08:39.116Z,71.90
2019-02-22T09:12:44.788Z,71.60
2019-02-22T09:16:50.497Z,71.30
2019-02-22T09:20:57.923Z,70.70
2019-02-22T09:25:04.123Z,70.20
2019-02-22T09:29:09.818Z,71.30
2019-02-22T09:33:15.499Z,71.50
2019-02-22T09:37:21.203Z,69.70
2019-02-22T09:41:26.925Z,67.40
2019-02-22T09:45:32.620Z,63.20
2019-02-22T09:49:38.324Z,63.40
2019-02-22T09:53:44.019Z,65.60
2019-02-22T09:57:51.364Z,66.20
2019-02-22T10:01:57.081Z,66.30
2019-02-22T10:06:03.754Z,66.00
2019-02-22T10:10:11.343Z,64.40
2019-02-22T10:14:17.043Z,63.80
2019-02-22T10:18:22.749Z,63.00
2019-02-22T10:22:28.484Z,63.20
2019-02-22T10:26:34.188Z,64.30
2019-02-22T10:30:39.897Z,64.40
2019-02-22T10:34:45.670Z,62.90
2019-02-22T10:38:51.372Z,59.90
2019-02-22T10:42:57.070Z,58.50
2019-02-22T10:47:02.778Z,56.80
2019-02-22T10:51:08.509Z,56.80
2019-02-22T10:55:15.990Z,58.80
2019-02-22T10:59:21.672Z,60.00
2019-02-22T11:03:27.378Z,59.70
2019-02-22T11:07:33.086Z,58.90
2019-02-22T11:11:39.895Z,56.90
2019-02-22T11:15:45.616Z,53.80
2019-02-22T11:19:51.321Z,53.90
2019-02-22T11:23:57.026Z,56.50
2019-02-22T11:28:02.711Z,55.20
2019-02-22T11:32:08.490Z,57.30
2019-02-22T11:36:14.196Z,56.90
2019-02-22T11:40:19.889Z,55.60
2019-02-22T11:44:25.639Z,54.60
2019-02-22T11:48:31.331Z,55.30
2019-02-22T11:52:37.043Z,49.10
2019-02-22T11:56:42.732Z,47.60
2019-02-22T12:00:48.649Z,47.80
2019-02-22T12:04:54.323Z,47.00
2019-02-22T12:09:00.021Z,47.10
2019-02-22T12:13:05.784Z,49.10
2019-02-22T12:17:11.544Z,47.40
2019-02-22T12:21:18.212Z,47.60
2019-02-22T12:25:23.941Z,47.30
2019-02-22T12:29:29.618Z,47.40
2019-02-22T12:33:35.341Z,47.80
2019-02-22T12:37:41.311Z,48.20
2019-02-22T12:41:47.057Z,49.90
2019-02-22T12:45:52.773Z,51.00
2019-02-22T12:49:58.523Z,50.40
2019-02-22T12:54:04.320Z,51.10
2019-02-22T12:58:10.036Z,51.20
2019-02-22T13:02:15.865Z,50.30
2019-02-22T13:06:21.619Z,50.60
2019-02-22T13:10:27.320Z,51.20
2019-02-22T13:14:33.019Z,49.70
2019-02-22T13:18:38.715Z,50.80
2019-02-22T13:22:44.486Z,50.40
2019-02-22T13:26:50.201Z,52.30
2019-02-22T13:30:55.938Z,52.40
2019-02-22T13:35:01.639Z,50.30
2019-02-22T13:39:20.266Z,48.90
2019-02-22T13:43:26.023Z,50.30
2019-02-22T13:47:31.767Z,51.90
2019-02-22T13:51:37.460Z,48.90
2019-02-22T13:55:43.272Z,50.90
2019-02-22T13:59:48.991Z,48.50
2019-02-22T14:03:54.686Z,49.60
2019-02-22T14:08:01.368Z,49.50
2019-02-22T14:12:07.057Z,49.80
2019-02-22T14:16:12.755Z,50.00
2019-02-22T14:20:18.610Z,49.20
2019-02-22T14:24:24.310Z,50.50
2019-02-22T14:34:52.580Z,49.00
2019-02-22T14:39:18.985Z,46.90
2019-02-22T14:43:24.683Z,47.30
2019-02-22T14:47:30.394Z,49.00
2019-02-22T14:51:36.102Z,48.80
2019-02-22T14:56:17.697Z,51.00
2019-02-22T15:00:23.425Z,49.80
2019-02-22T15:04:29.133Z,50.10
2019-02-22T15:08:34.841Z,50.20
2019-02-22T15:12:40.592Z,50.30
2019-02-22T15:16:51.822Z,50.00
2019-02-22T15:20:57.504Z,51.20
2019-02-22T15:25:03.214Z,50.80
2019-02-22T15:29:08.905Z,51.90
2019-02-22T15:33:14.610Z,49.40
2019-02-22T15:37:20.384Z,50.30
2019-02-22T15:41:26.113Z,54.20
2019-02-22T15:45:32.790Z,51.40
2019-02-22T15:49:38.451Z,51.80
2019-02-22T15:53:44.180Z,51.00
2019-02-22T15:57:49.839Z,51.60
2019-02-22T16:01:56.124Z,49.70
2019-02-22T16:06:01.841Z,50.10
2019-02-22T16:10:09.963Z,51.70
2019-02-22T16:14:15.941Z,49.80
2019-02-22T16:18:21.606Z,50.50
2019-02-22T16:22:27.353Z,51.30
2019-02-22T16:26:33.043Z,50.80
2019-02-22T16:30:38.819Z,49.20
2019-02-22T16:34:46.610Z,50.20
2019-02-22T16:38:51.870Z,51.20
2019-02-22T16:42:57.898Z,51.70
2019-02-22T16:47:03.595Z,52.00
2019-02-22T16:51:09.290Z,51.00
2019-02-22T16:55:16.980Z,51.20
2019-02-22T16:59:22.648Z,52.20
2019-02-22T17:03:28.348Z,53.10
2019-02-22T17:07:34.058Z,52.00
2019-02-22T17:11:39.766Z,53.10
2019-02-22T17:15:45.525Z,55.60
2019-02-22T17:19:51.211Z,54.60
2019-02-22T17:23:56.907Z,53.70
2019-02-22T17:28:02.616Z,53.70
2019-02-22T17:32:13.300Z,55.80
2019-02-22T17:36:26.733Z,54.30
2019-02-22T17:40:35.859Z,53.60
2019-02-22T17:44:44.975Z,54.20
2019-02-22T17:48:50.640Z,53.60
2019-02-22T17:52:56.373Z,55.70
2019-02-22T17:57:02.052Z,55.90
2019-02-22T18:01:08.122Z,56.80
2019-02-22T18:05:13.880Z,59.30
2019-02-22T18:09:19.594Z,57.20
2019-02-22T18:13:25.310Z,58.10
2019-02-22T18:17:31.973Z,58.60
2019-02-22T18:21:37.675Z,58.10
2019-02-22T18:25:43.443Z,59.70
2019-02-22T18:29:49.139Z,60.90
2019-02-22T18:33:54.837Z,58.50
2019-02-22T18:38:00.522Z,57.70
2019-02-22T18:42:06.445Z,58.00
2019-02-22T18:46:12.157Z,60.50
2019-02-22T18:50:17.926Z,61.70
2019-02-22T18:54:23.631Z,58.70
2019-02-22T18:58:29.390Z,59.10
2019-02-22T19:02:35.087Z,58.80
2019-02-22T19:06:40.796Z,60.70
2019-02-22T19:10:46.671Z,60.10
2019-02-22T19:14:52.428Z,59.90
2019-02-22T19:18:58.081Z,58.00
2019-02-22T19:23:03.995Z,60.90
2019-02-22T19:27:09.701Z,59.10
2019-02-22T19:31:15.415Z,58.70
2019-02-22T19:35:21.183Z,61.60
2019-02-22T19:39:26.876Z,59.70
2019-02-22T19:43:32.613Z,61.20
2019-02-22T19:47:41.869Z,62.00
2019-02-22T19:51:45.831Z,62.00
2019-02-22T19:55:52.510Z,62.20
2019-02-22T19:59:58.215Z,63.10
2019-02-22T20:04:03.927Z,63.10
2019-02-22T20:08:09.648Z,63.80
2019-02-22T20:12:15.336Z,64.90
2019-02-22T20:16:21.198Z,64.30
2019-02-22T20:20:27.866Z,64.90
2019-02-22T20:24:34.643Z,64.50
2019-02-22T20:28:40.399Z,69.50
2019-02-22T20:32:46.151Z,66.50
2019-02-22T20:36:51.873Z,64.20
2019-02-22T20:40:57.601Z,65.70
2019-02-22T20:45:03.390Z,65.90
2019-02-22T20:49:09.124Z,68.50
2019-02-22T20:53:14.798Z,64.30
2019-02-22T20:57:20.505Z,68.00
2019-02-22T21:01:26.269Z,68.20
2019-02-22T21:05:32.053Z,69.70
2019-02-22T21:09:37.757Z,69.90
2019-02-22T21:13:43.621Z,66.80
2019-02-22T21:17:49.334Z,67.10
2019-02-22T21:21:55.048Z,68.60
2019-02-22T21:26:00.775Z,65.80
2019-02-22T21:30:20.614Z,69.30
2019-02-22T21:34:26.313Z,66.20
2019-02-22T21:38:32.043Z,70.20
2019-02-22T21:42:37.752Z,66.40
2019-02-22T21:46:43.630Z,67.90
2019-02-22T21:50:49.337Z,69.80
2019-02-22T21:54:55.011Z,68.80
2019-02-22T21:59:00.723Z,67.70
2019-02-22T22:03:06.663Z,69.10
2019-02-22T22:07:12.417Z,70.50
2019-02-22T22:11:18.171Z,67.90
2019-02-22T22:15:24.921Z,68.60
2019-02-22T22:19:30.639Z,67.00
2019-02-22T22:23:36.353Z,69.60
2019-02-22T22:27:42.074Z,68.50
2019-02-22T22:31:47.760Z,68.10
2019-02-22T22:35:53.563Z,67.70
2019-02-22T22:39:59.284Z,66.60
2019-02-22T22:44:05.043Z,65.00
2019-02-22T22:48:10.733Z,66.30
2019-02-22T22:52:16.479Z,67.50
2019-02-22T22:56:22.189Z,70.80
2019-02-22T23:00:50.121Z,69.20
2019-02-22T23:04:58.218Z,68.10
2019-02-22T23:09:06.580Z,69.20
2019-02-22T23:13:13.876Z,70.00
2019-02-22T23:17:19.592Z,69.20
2019-02-22T23:21:26.455Z,65.60
2019-02-22T23:25:32.107Z,68.00
2019-02-22T23:29:37.807Z,67.00
2019-02-22T23:33:43.614Z,67.70
2019-02-22T23:37:49.328Z,68.00
2019-02-22T23:41:55.041Z,67.90
2019-02-22T23:46:00.743Z,66.50
2019-02-22T23:50:09.075Z,70.10
2019-02-22T23:54:14.765Z,70.00
2019-02-22T23:58:20.474Z,70.10
